Cologne, New Jersey
Current Conditions -  °F | °C
As of 4:54 PM on Sunday 25 Jan 2015 (Local Time) from KACY Reporting Station
Overcast Overcast  
Wind Chill: 42°   Ceiling: 4800
Heat Index: 45°   Visibility: 10mi
Dew Point: 31°   Wind: 6mph
Humidity: 58%   Direction: 330°NNW
Pressure: 29.84"   Gusts: NA
Location:  39.5°N, 74.61°W
Report Text: KACY 252154Z 33005KT 10SM OVC048 07/M01 A2984 RMK AO2 SLP105 T00721006
Loading
Personal Weather Stations






























Interactive Weather Map New forecast layout! Learn more

10-Day Weather Forecast

Advertisements
Track Severe Weather on mobile